sensor_id;sensor_type;location;lat;lon;timestamp;P1;durP1;ratioP1;P2;durP2;ratioP2
30824;SDS011;17550;45.486;12.222;2023-05-07T00:01:49;22.30;;;16.73;;
30824;SDS011;17550;45.486;12.222;2023-05-07T00:04:15;22.48;;;17.17;;
30824;SDS011;17550;45.486;12.222;2023-05-07T00:06:40;23.98;;;17.15;;
30824;SDS011;17550;45.486;12.222;2023-05-07T00:09:06;23.13;;;16.90;;
30824;SDS011;17550;45.486;12.222;2023-05-07T00:11:32;20.17;;;16.13;;
30824;SDS011;17550;45.486;12.222;2023-05-07T00:13:58;24.10;;;17.13;;
30824;SDS011;17550;45.486;12.222;2023-05-07T00:16:24;23.35;;;17.35;;
30824;SDS011;17550;45.486;12.222;2023-05-07T00:18:50;22.67;;;17.65;;
30824;SDS011;17550;45.486;12.222;2023-05-07T00:21:15;24.70;;;17.60;;
30824;SDS011;17550;45.486;12.222;2023-05-07T00:23:41;23.38;;;17.45;;
30824;SDS011;17550;45.486;12.222;2023-05-07T00:26:07;25.05;;;19.35;;
30824;SDS011;17550;45.486;12.222;2023-05-07T00:28:33;24.88;;;18.52;;
30824;SDS011;17550;45.486;12.222;2023-05-07T00:30:58;23.00;;;18.05;;
30824;SDS011;17550;45.486;12.222;2023-05-07T00:33:24;25.88;;;18.52;;
30824;SDS011;17550;45.486;12.222;2023-05-07T00:35:51;27.25;;;18.48;;
30824;SDS011;17550;45.486;12.222;2023-05-07T00:38:17;23.40;;;17.63;;
30824;SDS011;17550;45.486;12.222;2023-05-07T00:40:43;22.77;;;18.40;;
30824;SDS011;17550;45.486;12.222;2023-05-07T00:43:08;21.88;;;17.02;;
30824;SDS011;17550;45.486;12.222;2023-05-07T00:45:34;24.80;;;18.52;;
30824;SDS011;17550;45.486;12.222;2023-05-07T00:48:00;24.48;;;18.50;;
30824;SDS011;17550;45.486;12.222;2023-05-07T00:50:27;25.10;;;19.58;;
30824;SDS011;17550;45.486;12.222;2023-05-07T00:52:54;27.08;;;19.90;;
30824;SDS011;17550;45.486;12.222;2023-05-07T00:55:21;26.40;;;20.13;;
30824;SDS011;17550;45.486;12.222;2023-05-07T00:57:48;24.85;;;19.70;;
30824;SDS011;17550;45.486;12.222;2023-05-07T01:00:16;26.20;;;19.83;;
30824;SDS011;17550;45.486;12.222;2023-05-07T01:02:42;25.77;;;20.10;;
30824;SDS011;17550;45.486;12.222;2023-05-07T01:05:09;29.75;;;19.70;;
30824;SDS011;17550;45.486;12.222;2023-05-07T01:07:40;26.58;;;19.02;;
30824;SDS011;17550;45.486;12.222;2023-05-07T01:10:07;27.75;;;20.13;;
30824;SDS011;17550;45.486;12.222;2023-05-07T01:12:34;25.50;;;18.80;;
30824;SDS011;17550;45.486;12.222;2023-05-07T01:15:02;26.92;;;20.08;;
30824;SDS011;17550;45.486;12.222;2023-05-07T01:17:29;27.58;;;19.70;;
30824;SDS011;17550;45.486;12.222;2023-05-07T01:19:58;26.70;;;21.25;;
30824;SDS011;17550;45.486;12.222;2023-05-07T01:22:28;26.70;;;21.10;;
30824;SDS011;17550;45.486;12.222;2023-05-07T01:25:03;28.65;;;21.42;;
30824;SDS011;17550;45.486;12.222;2023-05-07T01:27:30;31.13;;;23.65;;
30824;SDS011;17550;45.486;12.222;2023-05-07T01:29:58;31.65;;;20.92;;
30824;SDS011;17550;45.486;12.222;2023-05-07T01:32:29;29.95;;;21.27;;
30824;SDS011;17550;45.486;12.222;2023-05-07T01:35:01;28.67;;;21.65;;
30824;SDS011;17550;45.486;12.222;2023-05-07T01:37:28;25.98;;;22.05;;
30824;SDS011;17550;45.486;12.222;2023-05-07T01:39:54;31.15;;;20.48;;
30824;SDS011;17550;45.486;12.222;2023-05-07T01:42:21;31.08;;;21.85;;
30824;SDS011;17550;45.486;12.222;2023-05-07T01:44:47;27.75;;;22.52;;
30824;SDS011;17550;45.486;12.222;2023-05-07T01:47:13;28.23;;;21.27;;
30824;SDS011;17550;45.486;12.222;2023-05-07T01:49:39;29.23;;;22.50;;
30824;SDS011;17550;45.486;12.222;2023-05-07T01:52:06;28.45;;;21.88;;
30824;SDS011;17550;45.486;12.222;2023-05-07T01:54:32;30.50;;;21.10;;
30824;SDS011;17550;45.486;12.222;2023-05-07T01:56:57;27.60;;;21.20;;
30824;SDS011;17550;45.486;12.222;2023-05-07T01:59:23;28.77;;;20.60;;
30824;SDS011;17550;45.486;12.222;2023-05-07T02:01:49;28.00;;;20.15;;
30824;SDS011;17550;45.486;12.222;2023-05-07T02:04:14;31.08;;;22.08;;
30824;SDS011;17550;45.486;12.222;2023-05-07T02:06:40;27.45;;;20.85;;
30824;SDS011;17550;45.486;12.222;2023-05-07T02:09:06;27.65;;;20.73;;
30824;SDS011;17550;45.486;12.222;2023-05-07T02:11:32;28.58;;;22.02;;
30824;SDS011;17550;45.486;12.222;2023-05-07T02:13:57;30.48;;;22.02;;
30824;SDS011;17550;45.486;12.222;2023-05-07T02:16:23;28.10;;;22.58;;
30824;SDS011;17550;45.486;12.222;2023-05-07T02:18:49;28.73;;;21.85;;
30824;SDS011;17550;45.486;12.222;2023-05-07T02:21:15;29.23;;;22.40;;
30824;SDS011;17550;45.486;12.222;2023-05-07T02:23:40;29.27;;;23.00;;
30824;SDS011;17550;45.486;12.222;2023-05-07T02:26:06;30.77;;;23.05;;
30824;SDS011;17550;45.486;12.222;2023-05-07T02:28:32;35.45;;;23.42;;
30824;SDS011;17550;45.486;12.222;2023-05-07T02:31:00;32.00;;;23.10;;
30824;SDS011;17550;45.486;12.222;2023-05-07T02:33:29;31.40;;;23.88;;
30824;SDS011;17550;45.486;12.222;2023-05-07T02:35:55;35.00;;;23.95;;
30824;SDS011;17550;45.486;12.222;2023-05-07T02:38:21;29.80;;;23.30;;
30824;SDS011;17550;45.486;12.222;2023-05-07T02:40:47;30.95;;;23.05;;
30824;SDS011;17550;45.486;12.222;2023-05-07T02:43:13;29.15;;;22.58;;
30824;SDS011;17550;45.486;12.222;2023-05-07T02:45:39;29.88;;;22.45;;
30824;SDS011;17550;45.486;12.222;2023-05-07T02:48:05;28.40;;;22.13;;
30824;SDS011;17550;45.486;12.222;2023-05-07T02:50:31;30.98;;;23.52;;
30824;SDS011;17550;45.486;12.222;2023-05-07T02:52:57;30.95;;;22.73;;
30824;SDS011;17550;45.486;12.222;2023-05-07T02:55:23;33.80;;;23.52;;
30824;SDS011;17550;45.486;12.222;2023-05-07T02:57:49;29.08;;;23.42;;
30824;SDS011;17550;45.486;12.222;2023-05-07T03:00:16;30.23;;;22.52;;
30824;SDS011;17550;45.486;12.222;2023-05-07T03:02:43;30.08;;;22.70;;
30824;SDS011;17550;45.486;12.222;2023-05-07T03:05:10;28.02;;;22.13;;
30824;SDS011;17550;45.486;12.222;2023-05-07T03:07:36;27.15;;;22.40;;
30824;SDS011;17550;45.486;12.222;2023-05-07T03:10:03;29.10;;;21.90;;
30824;SDS011;17550;45.486;12.222;2023-05-07T03:12:30;26.30;;;21.65;;
30824;SDS011;17550;45.486;12.222;2023-05-07T03:14:56;31.90;;;23.63;;
30824;SDS011;17550;45.486;12.222;2023-05-07T03:17:22;29.15;;;22.52;;
30824;SDS011;17550;45.486;12.222;2023-05-07T03:19:47;26.00;;;22.65;;
30824;SDS011;17550;45.486;12.222;2023-05-07T03:22:13;27.25;;;22.73;;
30824;SDS011;17550;45.486;12.222;2023-05-07T03:24:39;27.88;;;22.27;;
30824;SDS011;17550;45.486;12.222;2023-05-07T03:27:06;32.42;;;23.42;;
30824;SDS011;17550;45.486;12.222;2023-05-07T03:29:32;32.03;;;25.58;;
30824;SDS011;17550;45.486;12.222;2023-05-07T03:31:57;33.47;;;25.40;;
30824;SDS011;17550;45.486;12.222;2023-05-07T03:34:23;28.55;;;22.88;;
30824;SDS011;17550;45.486;12.222;2023-05-07T03:36:49;31.27;;;23.20;;
30824;SDS011;17550;45.486;12.222;2023-05-07T03:39:15;27.38;;;23.95;;
30824;SDS011;17550;45.486;12.222;2023-05-07T03:41:40;32.63;;;24.77;;
30824;SDS011;17550;45.486;12.222;2023-05-07T03:44:06;30.70;;;25.80;;
30824;SDS011;17550;45.486;12.222;2023-05-07T03:46:32;35.05;;;25.25;;
30824;SDS011;17550;45.486;12.222;2023-05-07T03:48:58;30.88;;;24.67;;
30824;SDS011;17550;45.486;12.222;2023-05-07T03:51:24;30.30;;;23.80;;
30824;SDS011;17550;45.486;12.222;2023-05-07T03:53:50;31.65;;;26.40;;
30824;SDS011;17550;45.486;12.222;2023-05-07T03:56:19;30.00;;;24.33;;
30824;SDS011;17550;45.486;12.222;2023-05-07T03:58:45;30.88;;;24.75;;
30824;SDS011;17550;45.486;12.222;2023-05-07T04:01:12;32.03;;;25.70;;
30824;SDS011;17550;45.486;12.222;2023-05-07T04:03:38;32.50;;;24.45;;
30824;SDS011;17550;45.486;12.222;2023-05-07T04:06:04;30.33;;;25.48;;
30824;SDS011;17550;45.486;12.222;2023-05-07T04:08:29;40.67;;;28.30;;
30824;SDS011;17550;45.486;12.222;2023-05-07T04:10:56;38.42;;;26.70;;
30824;SDS011;17550;45.486;12.222;2023-05-07T04:13:22;36.53;;;27.67;;
30824;SDS011;17550;45.486;12.222;2023-05-07T04:15:48;30.38;;;24.67;;
30824;SDS011;17550;45.486;12.222;2023-05-07T04:18:14;31.27;;;23.88;;
30824;SDS011;17550;45.486;12.222;2023-05-07T04:20:40;28.08;;;23.63;;
30824;SDS011;17550;45.486;12.222;2023-05-07T04:23:06;29.02;;;23.42;;
30824;SDS011;17550;45.486;12.222;2023-05-07T04:25:32;30.02;;;24.00;;
30824;SDS011;17550;45.486;12.222;2023-05-07T04:27:58;31.70;;;24.35;;
30824;SDS011;17550;45.486;12.222;2023-05-07T04:30:24;29.92;;;22.58;;
30824;SDS011;17550;45.486;12.222;2023-05-07T04:32:50;27.58;;;23.42;;
30824;SDS011;17550;45.486;12.222;2023-05-07T04:35:17;29.30;;;24.15;;
30824;SDS011;17550;45.486;12.222;2023-05-07T04:37:42;31.95;;;24.42;;
30824;SDS011;17550;45.486;12.222;2023-05-07T04:40:08;34.10;;;25.60;;
30824;SDS011;17550;45.486;12.222;2023-05-07T04:42:34;31.85;;;26.05;;
30824;SDS011;17550;45.486;12.222;2023-05-07T04:45:00;30.33;;;24.77;;
30824;SDS011;17550;45.486;12.222;2023-05-07T04:47:29;29.02;;;22.23;;
30824;SDS011;17550;45.486;12.222;2023-05-07T04:49:54;28.35;;;22.95;;
30824;SDS011;17550;45.486;12.222;2023-05-07T04:52:20;30.08;;;23.58;;
30824;SDS011;17550;45.486;12.222;2023-05-07T04:54:45;27.38;;;22.92;;
30824;SDS011;17550;45.486;12.222;2023-05-07T04:57:11;29.50;;;22.98;;
30824;SDS011;17550;45.486;12.222;2023-05-07T04:59:37;31.27;;;23.08;;
30824;SDS011;17550;45.486;12.222;2023-05-07T05:02:02;27.88;;;23.17;;
30824;SDS011;17550;45.486;12.222;2023-05-07T05:04:29;30.02;;;24.48;;
30824;SDS011;17550;45.486;12.222;2023-05-07T05:06:55;29.23;;;23.63;;
30824;SDS011;17550;45.486;12.222;2023-05-07T05:09:21;29.48;;;24.95;;
30824;SDS011;17550;45.486;12.222;2023-05-07T05:11:46;31.88;;;24.73;;
30824;SDS011;17550;45.486;12.222;2023-05-07T05:14:12;32.83;;;22.48;;
30824;SDS011;17550;45.486;12.222;2023-05-07T05:16:38;28.75;;;22.33;;
30824;SDS011;17550;45.486;12.222;2023-05-07T05:19:04;32.28;;;21.80;;
30824;SDS011;17550;45.486;12.222;2023-05-07T05:21:30;27.17;;;22.45;;
30824;SDS011;17550;45.486;12.222;2023-05-07T05:23:57;25.45;;;20.20;;
30824;SDS011;17550;45.486;12.222;2023-05-07T05:26:23;26.75;;;21.80;;
30824;SDS011;17550;45.486;12.222;2023-05-07T05:28:49;29.05;;;21.88;;
30824;SDS011;17550;45.486;12.222;2023-05-07T05:31:15;25.95;;;20.85;;
30824;SDS011;17550;45.486;12.222;2023-05-07T05:33:41;28.10;;;20.90;;
30824;SDS011;17550;45.486;12.222;2023-05-07T05:36:09;28.30;;;20.85;;
30824;SDS011;17550;45.486;12.222;2023-05-07T05:38:35;27.10;;;21.35;;
30824;SDS011;17550;45.486;12.222;2023-05-07T05:41:01;23.85;;;20.73;;
30824;SDS011;17550;45.486;12.222;2023-05-07T05:43:27;25.02;;;21.23;;
30824;SDS011;17550;45.486;12.222;2023-05-07T05:45:53;22.65;;;19.58;;
30824;SDS011;17550;45.486;12.222;2023-05-07T05:48:20;27.73;;;21.23;;
30824;SDS011;17550;45.486;12.222;2023-05-07T05:50:46;22.27;;;19.33;;
30824;SDS011;17550;45.486;12.222;2023-05-07T05:53:11;25.50;;;20.60;;
30824;SDS011;17550;45.486;12.222;2023-05-07T05:55:37;29.83;;;21.23;;
30824;SDS011;17550;45.486;12.222;2023-05-07T05:58:03;33.70;;;23.08;;
30824;SDS011;17550;45.486;12.222;2023-05-07T06:00:28;29.30;;;23.33;;
30824;SDS011;17550;45.486;12.222;2023-05-07T06:02:54;29.70;;;22.20;;
30824;SDS011;17550;45.486;12.222;2023-05-07T06:05:20;26.30;;;22.38;;
30824;SDS011;17550;45.486;12.222;2023-05-07T06:07:46;28.13;;;22.33;;
30824;SDS011;17550;45.486;12.222;2023-05-07T06:10:12;25.48;;;20.52;;
30824;SDS011;17550;45.486;12.222;2023-05-07T06:12:38;26.88;;;21.90;;
30824;SDS011;17550;45.486;12.222;2023-05-07T06:15:03;28.33;;;22.15;;
30824;SDS011;17550;45.486;12.222;2023-05-07T06:17:30;28.15;;;21.05;;
30824;SDS011;17550;45.486;12.222;2023-05-07T06:19:55;27.92;;;21.75;;
30824;SDS011;17550;45.486;12.222;2023-05-07T06:22:21;24.58;;;20.05;;
30824;SDS011;17550;45.486;12.222;2023-05-07T06:24:47;29.48;;;22.95;;
30824;SDS011;17550;45.486;12.222;2023-05-07T06:27:12;24.67;;;20.27;;
30824;SDS011;17550;45.486;12.222;2023-05-07T06:29:38;23.45;;;19.30;;
30824;SDS011;17550;45.486;12.222;2023-05-07T06:32:11;28.42;;;21.42;;
30824;SDS011;17550;45.486;12.222;2023-05-07T06:34:38;27.58;;;22.55;;
30824;SDS011;17550;45.486;12.222;2023-05-07T06:37:05;27.30;;;21.08;;
30824;SDS011;17550;45.486;12.222;2023-05-07T06:39:31;26.38;;;21.98;;
30824;SDS011;17550;45.486;12.222;2023-05-07T06:41:57;23.75;;;20.35;;
30824;SDS011;17550;45.486;12.222;2023-05-07T06:44:25;25.92;;;21.75;;
30824;SDS011;17550;45.486;12.222;2023-05-07T06:46:51;25.05;;;19.73;;
30824;SDS011;17550;45.486;12.222;2023-05-07T06:49:16;30.98;;;24.17;;
30824;SDS011;17550;45.486;12.222;2023-05-07T06:51:42;30.50;;;21.65;;
30824;SDS011;17550;45.486;12.222;2023-05-07T06:54:08;26.15;;;19.98;;
30824;SDS011;17550;45.486;12.222;2023-05-07T06:56:34;32.13;;;23.30;;
30824;SDS011;17550;45.486;12.222;2023-05-07T06:59:00;29.80;;;22.65;;
30824;SDS011;17550;45.486;12.222;2023-05-07T07:01:26;26.02;;;22.00;;
30824;SDS011;17550;45.486;12.222;2023-05-07T07:03:53;27.10;;;23.20;;
30824;SDS011;17550;45.486;12.222;2023-05-07T07:06:18;27.20;;;20.15;;
30824;SDS011;17550;45.486;12.222;2023-05-07T07:08:44;28.80;;;22.65;;
30824;SDS011;17550;45.486;12.222;2023-05-07T07:11:10;29.67;;;23.45;;
30824;SDS011;17550;45.486;12.222;2023-05-07T07:13:36;26.48;;;21.10;;
30824;SDS011;17550;45.486;12.222;2023-05-07T07:16:02;30.13;;;22.38;;
30824;SDS011;17550;45.486;12.222;2023-05-07T07:18:28;26.55;;;22.10;;
30824;SDS011;17550;45.486;12.222;2023-05-07T07:20:54;24.83;;;20.95;;
30824;SDS011;17550;45.486;12.222;2023-05-07T07:23:19;24.50;;;19.55;;
30824;SDS011;17550;45.486;12.222;2023-05-07T07:25:45;25.80;;;21.80;;
30824;SDS011;17550;45.486;12.222;2023-05-07T07:28:11;27.58;;;20.75;;
30824;SDS011;17550;45.486;12.222;2023-05-07T07:30:38;27.90;;;21.27;;
30824;SDS011;17550;45.486;12.222;2023-05-07T07:33:04;29.88;;;21.30;;
30824;SDS011;17550;45.486;12.222;2023-05-07T07:35:33;23.27;;;18.33;;
30824;SDS011;17550;45.486;12.222;2023-05-07T07:38:00;26.30;;;21.35;;
30824;SDS011;17550;45.486;12.222;2023-05-07T07:40:26;24.27;;;18.95;;
30824;SDS011;17550;45.486;12.222;2023-05-07T07:42:52;24.73;;;20.25;;
30824;SDS011;17550;45.486;12.222;2023-05-07T07:45:19;21.10;;;17.55;;
30824;SDS011;17550;45.486;12.222;2023-05-07T07:47:45;24.90;;;20.02;;
30824;SDS011;17550;45.486;12.222;2023-05-07T07:50:10;22.40;;;18.27;;
30824;SDS011;17550;45.486;12.222;2023-05-07T07:52:38;21.45;;;17.48;;
30824;SDS011;17550;45.486;12.222;2023-05-07T07:55:04;21.65;;;15.68;;
30824;SDS011;17550;45.486;12.222;2023-05-07T07:57:30;23.05;;;17.40;;
30824;SDS011;17550;45.486;12.222;2023-05-07T07:59:56;23.02;;;18.02;;
30824;SDS011;17550;45.486;12.222;2023-05-07T08:02:22;23.02;;;17.20;;
30824;SDS011;17550;45.486;12.222;2023-05-07T08:04:47;18.80;;;16.15;;
30824;SDS011;17550;45.486;12.222;2023-05-07T08:07:13;15.55;;;12.82;;
30824;SDS011;17550;45.486;12.222;2023-05-07T08:09:39;15.48;;;13.70;;
30824;SDS011;17550;45.486;12.222;2023-05-07T08:12:06;19.35;;;15.95;;
30824;SDS011;17550;45.486;12.222;2023-05-07T08:14:32;20.98;;;12.93;;
30824;SDS011;17550;45.486;12.222;2023-05-07T08:16:58;20.50;;;15.48;;
30824;SDS011;17550;45.486;12.222;2023-05-07T08:19:24;21.25;;;16.92;;
30824;SDS011;17550;45.486;12.222;2023-05-07T08:21:50;24.90;;;18.38;;
30824;SDS011;17550;45.486;12.222;2023-05-07T08:24:16;19.60;;;17.42;;
30824;SDS011;17550;45.486;12.222;2023-05-07T08:26:43;20.38;;;15.95;;
30824;SDS011;17550;45.486;12.222;2023-05-07T08:29:09;17.08;;;13.27;;
30824;SDS011;17550;45.486;12.222;2023-05-07T08:31:35;15.55;;;12.70;;
30824;SDS011;17550;45.486;12.222;2023-05-07T08:34:00;17.73;;;12.18;;
30824;SDS011;17550;45.486;12.222;2023-05-07T08:36:26;14.40;;;12.20;;
30824;SDS011;17550;45.486;12.222;2023-05-07T08:38:53;14.25;;;12.75;;
30824;SDS011;17550;45.486;12.222;2023-05-07T08:41:19;19.00;;;13.25;;
30824;SDS011;17550;45.486;12.222;2023-05-07T08:43:48;18.40;;;15.43;;
30824;SDS011;17550;45.486;12.222;2023-05-07T08:46:17;21.30;;;15.35;;
30824;SDS011;17550;45.486;12.222;2023-05-07T08:48:47;16.08;;;13.63;;
30824;SDS011;17550;45.486;12.222;2023-05-07T08:51:16;17.45;;;13.93;;
30824;SDS011;17550;45.486;12.222;2023-05-07T08:53:46;16.10;;;12.52;;
30824;SDS011;17550;45.486;12.222;2023-05-07T08:56:13;19.58;;;13.68;;
30824;SDS011;17550;45.486;12.222;2023-05-07T08:58:40;12.93;;;11.15;;
30824;SDS011;17550;45.486;12.222;2023-05-07T09:01:08;15.05;;;12.40;;
30824;SDS011;17550;45.486;12.222;2023-05-07T09:03:36;14.57;;;11.50;;
30824;SDS011;17550;45.486;12.222;2023-05-07T09:06:03;13.18;;;11.30;;
30824;SDS011;17550;45.486;12.222;2023-05-07T09:08:29;14.32;;;9.70;;
30824;SDS011;17550;45.486;12.222;2023-05-07T09:10:55;13.40;;;11.27;;
30824;SDS011;17550;45.486;12.222;2023-05-07T09:13:21;12.82;;;10.98;;
30824;SDS011;17550;45.486;12.222;2023-05-07T09:15:46;17.77;;;12.90;;
30824;SDS011;17550;45.486;12.222;2023-05-07T09:18:12;14.60;;;12.43;;
30824;SDS011;17550;45.486;12.222;2023-05-07T09:20:38;13.57;;;10.77;;
30824;SDS011;17550;45.486;12.222;2023-05-07T09:23:05;15.73;;;10.18;;
30824;SDS011;17550;45.486;12.222;2023-05-07T09:25:32;10.25;;;9.18;;
30824;SDS011;17550;45.486;12.222;2023-05-07T09:28:02;8.18;;;7.35;;
30824;SDS011;17550;45.486;12.222;2023-05-07T09:30:32;9.95;;;8.40;;
30824;SDS011;17550;45.486;12.222;2023-05-07T09:32:58;10.15;;;6.88;;
30824;SDS011;17550;45.486;12.222;2023-05-07T09:35:25;11.73;;;7.13;;
30824;SDS011;17550;45.486;12.222;2023-05-07T09:37:58;13.80;;;8.68;;
30824;SDS011;17550;45.486;12.222;2023-05-07T09:40:25;13.02;;;8.93;;
30824;SDS011;17550;45.486;12.222;2023-05-07T09:42:52;12.15;;;8.25;;
30824;SDS011;17550;45.486;12.222;2023-05-07T09:45:28;13.65;;;9.63;;
30824;SDS011;17550;45.486;12.222;2023-05-07T09:47:57;15.10;;;9.05;;
30824;SDS011;17550;45.486;12.222;2023-05-07T09:50:25;14.82;;;9.98;;
30824;SDS011;17550;45.486;12.222;2023-05-07T09:52:55;15.63;;;8.57;;
30824;SDS011;17550;45.486;12.222;2023-05-07T09:55:22;9.93;;;8.60;;
30824;SDS011;17550;45.486;12.222;2023-05-07T09:57:51;11.18;;;8.07;;
30824;SDS011;17550;45.486;12.222;2023-05-07T10:00:18;9.73;;;8.73;;
30824;SDS011;17550;45.486;12.222;2023-05-07T10:02:47;11.73;;;9.32;;
30824;SDS011;17550;45.486;12.222;2023-05-07T10:05:16;12.43;;;8.10;;
30824;SDS011;17550;45.486;12.222;2023-05-07T10:07:42;9.65;;;7.88;;
30824;SDS011;17550;45.486;12.222;2023-05-07T10:10:09;14.07;;;8.57;;
30824;SDS011;17550;45.486;12.222;2023-05-07T10:12:36;8.50;;;7.55;;
30824;SDS011;17550;45.486;12.222;2023-05-07T10:15:07;21.55;;;10.52;;
30824;SDS011;17550;45.486;12.222;2023-05-07T10:17:37;21.35;;;11.38;;
30824;SDS011;17550;45.486;12.222;2023-05-07T10:20:04;9.57;;;8.60;;
30824;SDS011;17550;45.486;12.222;2023-05-07T10:22:41;11.80;;;9.15;;
30824;SDS011;17550;45.486;12.222;2023-05-07T10:25:18;10.90;;;8.40;;
30824;SDS011;17550;45.486;12.222;2023-05-07T10:27:48;16.02;;;10.60;;
30824;SDS011;17550;45.486;12.222;2023-05-07T10:32:51;12.75;;;9.65;;
30824;SDS011;17550;45.486;12.222;2023-05-07T10:35:22;12.68;;;9.27;;
30824;SDS011;17550;45.486;12.222;2023-05-07T10:37:50;16.50;;;9.60;;
30824;SDS011;17550;45.486;12.222;2023-05-07T10:40:17;11.35;;;8.75;;
30824;SDS011;17550;45.486;12.222;2023-05-07T10:42:57;11.10;;;8.35;;
30824;SDS011;17550;45.486;12.222;2023-05-07T10:45:25;11.52;;;9.48;;
30824;SDS011;17550;45.486;12.222;2023-05-07T10:50:40;13.23;;;10.18;;
30824;SDS011;17550;45.486;12.222;2023-05-07T10:55:42;12.45;;;8.82;;
30824;SDS011;17550;45.486;12.222;2023-05-07T11:00:46;12.95;;;7.47;;
30824;SDS011;17550;45.486;12.222;2023-05-07T11:03:12;14.68;;;8.35;;
30824;SDS011;17550;45.486;12.222;2023-05-07T11:05:39;12.20;;;8.20;;
30824;SDS011;17550;45.486;12.222;2023-05-07T11:08:06;9.60;;;7.72;;
30824;SDS011;17550;45.486;12.222;2023-05-07T11:13:17;16.85;;;11.30;;
30824;SDS011;17550;45.486;12.222;2023-05-07T11:16:03;10.93;;;7.90;;
30824;SDS011;17550;45.486;12.222;2023-05-07T11:18:45;13.05;;;9.50;;
30824;SDS011;17550;45.486;12.222;2023-05-07T11:24:19;11.02;;;9.70;;
30824;SDS011;17550;45.486;12.222;2023-05-07T11:26:50;22.70;;;16.95;;
30824;SDS011;17550;45.486;12.222;2023-05-07T11:29:17;18.63;;;14.90;;
30824;SDS011;17550;45.486;12.222;2023-05-07T11:31:44;18.77;;;11.57;;
30824;SDS011;17550;45.486;12.222;2023-05-07T11:34:14;15.32;;;12.25;;
30824;SDS011;17550;45.486;12.222;2023-05-07T11:36:45;16.67;;;13.30;;
30824;SDS011;17550;45.486;12.222;2023-05-07T11:39:23;15.43;;;12.57;;
30824;SDS011;17550;45.486;12.222;2023-05-07T11:41:51;11.55;;;9.32;;
30824;SDS011;17550;45.486;12.222;2023-05-07T11:44:17;13.93;;;9.27;;
30824;SDS011;17550;45.486;12.222;2023-05-07T11:46:43;9.75;;;8.20;;
30824;SDS011;17550;45.486;12.222;2023-05-07T11:49:09;8.57;;;7.63;;
30824;SDS011;17550;45.486;12.222;2023-05-07T11:51:35;29.85;;;18.08;;
30824;SDS011;17550;45.486;12.222;2023-05-07T11:54:03;17.35;;;13.95;;
30824;SDS011;17550;45.486;12.222;2023-05-07T11:56:33;13.85;;;10.27;;
30824;SDS011;17550;45.486;12.222;2023-05-07T11:59:00;8.80;;;7.80;;
30824;SDS011;17550;45.486;12.222;2023-05-07T12:01:26;11.93;;;9.13;;
30824;SDS011;17550;45.486;12.222;2023-05-07T12:03:52;10.00;;;8.23;;
30824;SDS011;17550;45.486;12.222;2023-05-07T12:06:18;11.73;;;8.13;;
30824;SDS011;17550;45.486;12.222;2023-05-07T12:08:45;52.70;;;39.85;;
30824;SDS011;17550;45.486;12.222;2023-05-07T12:11:15;21.20;;;14.48;;
30824;SDS011;17550;45.486;12.222;2023-05-07T12:13:47;13.25;;;9.73;;
30824;SDS011;17550;45.486;12.222;2023-05-07T12:16:12;13.00;;;11.13;;
30824;SDS011;17550;45.486;12.222;2023-05-07T12:18:38;9.77;;;7.50;;
30824;SDS011;17550;45.486;12.222;2023-05-07T12:21:05;16.27;;;11.88;;
30824;SDS011;17550;45.486;12.222;2023-05-07T12:23:33;12.50;;;9.48;;
30824;SDS011;17550;45.486;12.222;2023-05-07T12:26:00;9.65;;;7.97;;
30824;SDS011;17550;45.486;12.222;2023-05-07T12:28:27;7.80;;;6.47;;
30824;SDS011;17550;45.486;12.222;2023-05-07T12:30:53;9.82;;;6.85;;
30824;SDS011;17550;45.486;12.222;2023-05-07T12:33:22;14.95;;;9.70;;
30824;SDS011;17550;45.486;12.222;2023-05-07T12:35:49;12.10;;;9.55;;
30824;SDS011;17550;45.486;12.222;2023-05-07T12:38:16;8.52;;;7.70;;
30824;SDS011;17550;45.486;12.222;2023-05-07T12:40:43;8.00;;;6.60;;
30824;SDS011;17550;45.486;12.222;2023-05-07T12:43:19;11.48;;;7.65;;
30824;SDS011;17550;45.486;12.222;2023-05-07T12:45:46;9.77;;;8.25;;
30824;SDS011;17550;45.486;12.222;2023-05-07T12:48:14;13.15;;;8.05;;
30824;SDS011;17550;45.486;12.222;2023-05-07T12:50:39;10.93;;;7.60;;
30824;SDS011;17550;45.486;12.222;2023-05-07T12:53:06;10.88;;;7.03;;
30824;SDS011;17550;45.486;12.222;2023-05-07T12:55:42;15.40;;;8.00;;
30824;SDS011;17550;45.486;12.222;2023-05-07T12:58:16;8.93;;;7.97;;
30824;SDS011;17550;45.486;12.222;2023-05-07T13:00:43;16.77;;;11.20;;
30824;SDS011;17550;45.486;12.222;2023-05-07T13:03:10;13.45;;;9.38;;
30824;SDS011;17550;45.486;12.222;2023-05-07T13:05:36;15.60;;;8.45;;
30824;SDS011;17550;45.486;12.222;2023-05-07T13:08:02;12.25;;;8.25;;
30824;SDS011;17550;45.486;12.222;2023-05-07T13:10:28;15.32;;;10.82;;
30824;SDS011;17550;45.486;12.222;2023-05-07T13:12:53;14.73;;;9.52;;
30824;SDS011;17550;45.486;12.222;2023-05-07T13:15:19;16.55;;;11.20;;
30824;SDS011;17550;45.486;12.222;2023-05-07T13:17:46;15.48;;;11.77;;
30824;SDS011;17550;45.486;12.222;2023-05-07T13:20:12;11.90;;;8.65;;
30824;SDS011;17550;45.486;12.222;2023-05-07T13:22:38;13.88;;;9.95;;
30824;SDS011;17550;45.486;12.222;2023-05-07T13:25:05;15.43;;;10.50;;
30824;SDS011;17550;45.486;12.222;2023-05-07T13:27:31;12.45;;;9.00;;
30824;SDS011;17550;45.486;12.222;2023-05-07T13:29:57;12.15;;;8.05;;
30824;SDS011;17550;45.486;12.222;2023-05-07T13:32:22;9.88;;;7.13;;
30824;SDS011;17550;45.486;12.222;2023-05-07T13:34:48;7.72;;;6.90;;
30824;SDS011;17550;45.486;12.222;2023-05-07T13:37:14;14.45;;;9.18;;
30824;SDS011;17550;45.486;12.222;2023-05-07T13:39:40;14.30;;;9.55;;
30824;SDS011;17550;45.486;12.222;2023-05-07T13:42:09;15.55;;;9.55;;
30824;SDS011;17550;45.486;12.222;2023-05-07T13:44:35;13.70;;;7.45;;
30824;SDS011;17550;45.486;12.222;2023-05-07T13:47:00;12.02;;;8.93;;
30824;SDS011;17550;45.486;12.222;2023-05-07T13:49:26;8.65;;;6.88;;
30824;SDS011;17550;45.486;12.222;2023-05-07T13:51:52;10.50;;;7.65;;
30824;SDS011;17550;45.486;12.222;2023-05-07T13:54:18;14.45;;;6.07;;
30824;SDS011;17550;45.486;12.222;2023-05-07T13:56:44;8.80;;;7.18;;
30824;SDS011;17550;45.486;12.222;2023-05-07T13:59:09;13.10;;;7.63;;
30824;SDS011;17550;45.486;12.222;2023-05-07T14:01:35;6.35;;;5.35;;
30824;SDS011;17550;45.486;12.222;2023-05-07T14:04:01;13.80;;;6.60;;
30824;SDS011;17550;45.486;12.222;2023-05-07T14:06:26;9.60;;;7.07;;
30824;SDS011;17550;45.486;12.222;2023-05-07T14:08:52;8.63;;;5.93;;
30824;SDS011;17550;45.486;12.222;2023-05-07T14:11:18;10.73;;;6.22;;
30824;SDS011;17550;45.486;12.222;2023-05-07T14:13:43;12.73;;;5.97;;
30824;SDS011;17550;45.486;12.222;2023-05-07T14:16:09;7.28;;;4.82;;
30824;SDS011;17550;45.486;12.222;2023-05-07T14:18:35;6.85;;;4.78;;
30824;SDS011;17550;45.486;12.222;2023-05-07T14:21:02;5.45;;;4.40;;
30824;SDS011;17550;45.486;12.222;2023-05-07T14:23:28;7.40;;;5.10;;
30824;SDS011;17550;45.486;12.222;2023-05-07T14:25:54;10.20;;;4.90;;
30824;SDS011;17550;45.486;12.222;2023-05-07T14:28:21;8.45;;;5.00;;